createdAt,value
2023-02-11T00:00:13.764Z,100.95
2023-02-11T00:02:40.369Z,108.50
2023-02-11T00:05:07.062Z,110.03
2023-02-11T00:07:35.355Z,105.70
2023-02-11T00:10:08.038Z,162.98
2023-02-11T00:12:36.237Z,94.43
2023-02-11T00:15:03.346Z,93.43
2023-02-11T00:17:29.970Z,106.70
2023-02-11T00:19:56.639Z,104.75
2023-02-11T00:22:23.666Z,116.10
2023-02-11T00:24:50.253Z,111.70
2023-02-11T00:27:16.782Z,113.20
2023-02-11T00:29:43.364Z,118.32
2023-02-11T00:32:10.779Z,138.02
2023-02-11T00:34:38.282Z,201.88
2023-02-11T00:37:05.581Z,120.93
2023-02-11T00:39:32.355Z,121.05
2023-02-11T00:41:58.988Z,127.22
2023-02-11T00:44:25.646Z,127.32
2023-02-11T00:46:52.208Z,124.35
2023-02-11T00:49:19.292Z,126.03
2023-02-11T00:51:45.941Z,120.07
2023-02-11T00:54:12.507Z,122.55
2023-02-11T00:56:39.156Z,127.15
2023-02-11T00:59:05.753Z,123.20
2023-02-11T01:01:32.402Z,128.38
2023-02-11T01:03:59.032Z,124.30
2023-02-11T01:06:26.597Z,126.13
2023-02-11T01:08:53.250Z,122.78
2023-02-11T01:11:21.910Z,113.30
2023-02-11T01:13:49.888Z,116.20
2023-02-11T01:16:17.138Z,124.80
2023-02-11T01:18:44.714Z,154.73
2023-02-11T01:21:11.658Z,136.02
2023-02-11T01:23:38.202Z,130.50
2023-02-11T01:26:05.145Z,126.18
2023-02-11T01:28:32.251Z,125.97
2023-02-11T01:31:00.955Z,118.68
2023-02-11T01:33:27.804Z,117.55
2023-02-11T01:35:54.447Z,120.13
2023-02-11T01:38:24.392Z,117.82
2023-02-11T01:40:53.288Z,123.97
2023-02-11T01:43:20.642Z,123.32
2023-02-11T01:45:47.271Z,126.60
2023-02-11T01:48:28.254Z,129.57
2023-02-11T01:51:02.841Z,125.93
2023-02-11T01:53:48.528Z,133.95
2023-02-11T01:56:37.124Z,123.28
2023-02-11T01:59:11.200Z,125.15
2023-02-11T02:01:40.569Z,145.68
2023-02-11T02:04:09.612Z,181.43
2023-02-11T02:06:44.223Z,125.65
2023-02-11T02:09:20.067Z,122.28
2023-02-11T02:11:46.751Z,119.93
2023-02-11T02:14:13.707Z,119.82
2023-02-11T02:16:40.427Z,117.05
2023-02-11T02:19:30.109Z,116.20
2023-02-11T02:22:14.374Z,126.57
2023-02-11T02:25:06.724Z,108.25
2023-02-11T02:27:40.441Z,109.63
2023-02-11T02:30:38.787Z,112.88
2023-02-11T02:33:22.377Z,110.15
2023-02-11T02:36:13.436Z,119.03
2023-02-11T02:38:53.352Z,113.50
2023-02-11T02:41:26.870Z,105.70
2023-02-11T02:43:54.053Z,118.90
2023-02-11T02:46:24.968Z,109.78
2023-02-11T02:48:53.706Z,109.65
2023-02-11T02:51:32.293Z,107.45
2023-02-11T02:54:14.084Z,107.65
2023-02-11T02:56:44.689Z,110.65
2023-02-11T02:59:49.582Z,111.53
2023-02-11T03:02:37.102Z,112.50
2023-02-11T03:05:15.730Z,115.03
2023-02-11T03:08:12.319Z,111.47
2023-02-11T03:10:43.914Z,108.68
2023-02-11T03:13:11.183Z,110.13
2023-02-11T03:15:47.722Z,111.68
2023-02-11T03:18:18.701Z,114.68
2023-02-11T03:20:50.760Z,114.25
2023-02-11T03:23:37.840Z,116.15
2023-02-11T03:26:38.049Z,115.38
2023-02-11T03:29:07.568Z,113.57
2023-02-11T03:31:55.511Z,118.28
2023-02-11T03:34:27.750Z,135.77
2023-02-11T03:37:00.362Z,119.18
2023-02-11T03:39:44.470Z,116.25
2023-02-11T03:42:13.492Z,121.63
2023-02-11T03:44:56.515Z,121.35
2023-02-11T03:47:27.475Z,121.35
2023-02-11T03:49:58.192Z,122.53
2023-02-11T03:52:26.342Z,119.68
2023-02-11T03:54:58.033Z,125.18
2023-02-11T03:57:24.607Z,122.65
2023-02-11T03:59:52.173Z,131.05
2023-02-11T04:02:19.869Z,130.63
2023-02-11T04:04:47.505Z,137.27
2023-02-11T04:07:14.160Z,138.10
2023-02-11T04:09:40.810Z,139.02
2023-02-11T04:12:07.705Z,141.20
2023-02-11T04:14:34.350Z,146.93
2023-02-11T04:17:00.922Z,141.57
2023-02-11T04:19:27.469Z,142.95
2023-02-11T04:21:54.033Z,143.77
2023-02-11T04:24:20.665Z,148.02
2023-02-11T04:26:47.248Z,147.77
2023-02-11T04:29:13.820Z,148.90
2023-02-11T04:31:40.497Z,142.23
2023-02-11T04:34:07.141Z,138.38
2023-02-11T04:36:33.697Z,129.50
2023-02-11T04:39:00.349Z,125.35
2023-02-11T04:41:26.914Z,124.40
2023-02-11T04:43:53.469Z,121.18
2023-02-11T04:46:20.037Z,121.15
2023-02-11T04:48:46.672Z,124.63
2023-02-11T04:51:13.379Z,120.93
2023-02-11T04:53:40.158Z,115.38
2023-02-11T04:56:07.018Z,119.95
2023-02-11T04:58:33.869Z,121.75
2023-02-11T05:01:12.382Z,116.70
2023-02-11T05:03:39.381Z,112.05
2023-02-11T05:06:06.511Z,111.53
2023-02-11T05:08:33.924Z,116.95
2023-02-11T05:11:02.248Z,110.18
2023-02-11T05:13:30.395Z,106.57
2023-02-11T05:15:57.005Z,98.20
2023-02-11T05:18:23.714Z,96.25
2023-02-11T05:20:50.264Z,95.85
2023-02-11T05:23:16.778Z,98.57
2023-02-11T05:25:43.341Z,96.35
2023-02-11T05:28:09.891Z,92.55
2023-02-11T05:30:36.589Z,93.25
2023-02-11T05:33:03.252Z,95.18
2023-02-11T05:35:29.806Z,96.25
2023-02-11T05:37:56.336Z,93.43
2023-02-11T05:40:22.912Z,83.85
2023-02-11T05:42:49.478Z,78.20
2023-02-11T05:45:16.046Z,81.78
2023-02-11T05:47:42.642Z,81.13
2023-02-11T05:50:09.466Z,83.18
2023-02-11T05:52:36.061Z,87.03
2023-02-11T05:55:02.847Z,85.78
2023-02-11T05:57:29.403Z,98.97
2023-02-11T05:59:55.952Z,98.85
2023-02-11T06:02:22.628Z,107.00
2023-02-11T06:04:49.204Z,378.75
2023-02-11T06:07:15.812Z,120.90
2023-02-11T06:09:42.456Z,120.53
2023-02-11T06:12:09.029Z,109.75
2023-02-11T06:14:35.570Z,104.68
2023-02-11T06:17:02.262Z,100.03
2023-02-11T06:19:29.128Z,108.38
2023-02-11T06:21:56.324Z,136.10
2023-02-11T06:24:47.766Z,144.30
2023-02-11T06:27:09.821Z,137.88
2023-02-11T06:29:36.413Z,158.98
2023-02-11T06:32:03.193Z,182.27
2023-02-11T06:34:29.900Z,183.50
2023-02-11T06:36:56.493Z,187.60
2023-02-11T06:39:23.063Z,195.60
2023-02-11T06:41:50.069Z,225.57
2023-02-11T06:44:16.613Z,232.38
2023-02-11T06:46:43.223Z,229.82
2023-02-11T06:49:09.992Z,340.48
2023-02-11T06:51:37.015Z,258.05
2023-02-11T06:54:05.877Z,246.88
2023-02-11T06:56:33.589Z,197.35
2023-02-11T06:59:00.260Z,223.73
2023-02-11T07:01:27.932Z,264.25
2023-02-11T07:03:54.870Z,254.95
2023-02-11T07:06:24.796Z,193.32
2023-02-11T07:08:51.399Z,179.07
2023-02-11T07:11:24.690Z,159.98
2023-02-11T07:13:53.249Z,178.15
2023-02-11T07:16:20.656Z,146.15
2023-02-11T07:18:48.706Z,154.60
2023-02-11T07:21:18.281Z,119.32
2023-02-11T07:23:45.073Z,127.75
2023-02-11T07:26:14.040Z,124.93
2023-02-11T07:28:41.158Z,123.43
2023-02-11T07:31:08.449Z,139.82
2023-02-11T07:33:36.839Z,122.95
2023-02-11T07:36:05.503Z,120.53
2023-02-11T07:38:33.302Z,134.10
2023-02-11T07:41:01.571Z,141.45
2023-02-11T07:43:28.642Z,120.47
2023-02-11T07:45:55.240Z,95.05
2023-02-11T07:48:21.880Z,76.93
2023-02-11T07:50:48.407Z,83.78
2023-02-11T07:53:14.971Z,112.35
2023-02-11T07:55:43.444Z,101.35
2023-02-11T07:58:10.034Z,109.88
2023-02-11T08:00:36.952Z,115.85
2023-02-11T08:03:03.930Z,119.60
2023-02-11T08:05:30.553Z,132.85
2023-02-11T08:07:57.070Z,147.38
2023-02-11T08:10:23.666Z,165.65
2023-02-11T08:12:50.210Z,178.23
2023-02-11T08:15:16.799Z,182.38
2023-02-11T08:17:43.348Z,181.48
2023-02-11T08:20:10.400Z,160.30
2023-02-11T08:22:37.052Z,166.85
2023-02-11T08:25:03.762Z,174.88
2023-02-11T08:27:31.106Z,164.75
2023-02-11T08:29:59.521Z,131.80
2023-02-11T08:32:26.801Z,119.72
2023-02-11T08:34:53.961Z,114.80
2023-02-11T08:37:20.765Z,97.22
2023-02-11T08:39:47.531Z,91.07
2023-02-11T08:42:15.627Z,86.72
2023-02-11T08:44:43.357Z,84.50
2023-02-11T08:47:10.009Z,78.43
2023-02-11T08:49:36.660Z,64.90
2023-02-11T08:52:04.234Z,64.82
2023-02-11T08:54:31.418Z,57.15
2023-02-11T08:56:58.600Z,56.58
2023-02-11T08:59:25.219Z,55.20
2023-02-11T09:01:51.832Z,49.28
2023-02-11T09:04:18.779Z,50.50
2023-02-11T09:06:45.677Z,49.63
2023-02-11T09:09:14.405Z,45.42
2023-02-11T09:11:42.322Z,44.35
2023-02-11T09:14:19.088Z,43.75
2023-02-11T09:16:45.864Z,42.17
2023-02-11T09:19:12.476Z,44.97
2023-02-11T09:21:40.290Z,39.28
2023-02-11T09:24:07.059Z,39.38
2023-02-11T09:26:35.632Z,35.20
2023-02-11T09:29:03.325Z,34.92
2023-02-11T09:31:32.654Z,31.27
2023-02-11T09:34:02.604Z,29.83
2023-02-11T09:36:35.012Z,29.52
2023-02-11T09:39:02.772Z,29.50
2023-02-11T09:41:50.768Z,28.17
2023-02-11T09:44:25.109Z,29.42
2023-02-11T09:47:22.602Z,32.17
2023-02-11T09:49:52.814Z,29.35
2023-02-11T09:52:45.110Z,31.67
2023-02-11T09:55:17.103Z,32.33
2023-02-11T09:57:43.677Z,32.58
2023-02-11T10:00:24.200Z,32.00
2023-02-11T10:03:15.556Z,32.17
2023-02-11T10:06:00.347Z,32.03
2023-02-11T10:08:49.150Z,30.65
2023-02-11T10:11:38.810Z,32.38
2023-02-11T10:14:36.298Z,31.95
2023-02-11T10:17:31.948Z,30.23
2023-02-11T10:20:19.632Z,30.48
2023-02-11T10:22:52.538Z,32.08
2023-02-11T10:25:34.601Z,32.15
2023-02-11T10:28:10.057Z,31.95
2023-02-11T10:31:06.998Z,31.20
2023-02-11T10:33:36.644Z,31.33
2023-02-11T10:36:04.702Z,31.58
2023-02-11T10:38:33.023Z,30.05
2023-02-11T10:41:00.186Z,30.65
2023-02-11T10:43:29.661Z,30.92
2023-02-11T10:45:57.433Z,32.17
2023-02-11T10:48:39.945Z,31.33
2023-02-11T10:51:28.368Z,30.00
2023-02-11T10:54:04.227Z,30.63
2023-02-11T10:56:34.660Z,30.92
2023-02-11T10:59:02.749Z,31.10
2023-02-11T11:01:53.599Z,30.38
2023-02-11T11:04:38.731Z,29.90
2023-02-11T11:07:17.285Z,31.13
2023-02-11T11:09:49.207Z,32.20
2023-02-11T11:12:33.044Z,28.98
2023-02-11T11:15:16.426Z,32.20
2023-02-11T11:17:45.296Z,31.35
2023-02-11T11:20:23.695Z,27.55
2023-02-11T11:22:52.509Z,29.42
2023-02-11T11:25:29.962Z,30.05
2023-02-11T11:28:00.837Z,28.85
2023-02-11T11:30:39.218Z,29.95
2023-02-11T11:33:20.297Z,28.63
2023-02-11T11:35:57.933Z,27.38
2023-02-11T11:38:24.669Z,27.90
2023-02-11T11:41:19.454Z,26.25
2023-02-11T11:44:13.467Z,26.23
2023-02-11T11:46:44.113Z,25.67
2023-02-11T11:49:29.878Z,26.25
2023-02-11T11:52:34.611Z,26.40
2023-02-11T11:55:22.989Z,29.45
2023-02-11T11:57:50.168Z,31.38
2023-02-11T12:00:44.093Z,28.45
2023-02-11T12:03:37.193Z,29.70
2023-02-11T12:06:22.443Z,29.45
2023-02-11T12:08:48.973Z,30.85
2023-02-11T12:11:31.309Z,28.65
2023-02-11T12:14:37.702Z,30.67
2023-02-11T12:17:14.350Z,29.48
2023-02-11T12:19:47.224Z,27.58
2023-02-11T12:22:25.907Z,28.58
2023-02-11T12:25:09.999Z,29.58
2023-02-11T12:27:54.941Z,29.53
2023-02-11T12:33:22.749Z,29.13
2023-02-11T12:35:59.346Z,29.70
2023-02-11T12:38:34.805Z,29.95
2023-02-11T12:41:17.664Z,28.10
2023-02-11T12:43:45.061Z,30.25
2023-02-11T12:46:33.441Z,28.38
2023-02-11T12:49:35.504Z,30.48
2023-02-11T12:52:20.324Z,27.58
2023-02-11T12:55:15.621Z,29.10
2023-02-11T13:00:18.485Z,29.45
2023-02-11T13:03:11.727Z,28.25
2023-02-11T13:05:44.467Z,26.92
2023-02-11T13:08:16.320Z,28.20
2023-02-11T13:10:47.919Z,29.17
2023-02-11T13:13:30.615Z,27.48
2023-02-11T13:16:06.167Z,26.02
2023-02-11T13:18:37.350Z,27.48
2023-02-11T13:21:13.002Z,26.48
2023-02-11T13:23:41.857Z,26.92
2023-02-11T13:26:26.933Z,29.67
2023-02-11T13:29:06.008Z,26.92
2023-02-11T13:31:32.815Z,27.25
2023-02-11T13:33:59.415Z,27.95
2023-02-11T13:36:28.651Z,26.63
2023-02-11T13:39:06.449Z,27.20
2023-02-11T13:41:39.530Z,26.30
2023-02-11T13:44:08.794Z,26.73
2023-02-11T13:46:54.196Z,26.20
2023-02-11T13:49:24.897Z,26.98
2023-02-11T13:51:52.940Z,26.67
2023-02-11T13:54:40.005Z,27.95
2023-02-11T13:57:27.977Z,28.02
2023-02-11T14:00:01.035Z,27.40
2023-02-11T14:02:45.945Z,25.73
2023-02-11T14:08:28.347Z,26.98
2023-02-11T14:11:10.930Z,27.23
2023-02-11T14:14:17.836Z,26.63
2023-02-11T14:17:00.193Z,26.30
2023-02-11T14:19:34.928Z,28.35
2023-02-11T14:24:32.331Z,27.13
2023-02-11T14:27:06.880Z,27.40
2023-02-11T14:29:38.666Z,26.52
2023-02-11T14:32:23.250Z,28.13
2023-02-11T14:35:15.382Z,27.38
2023-02-11T14:37:57.269Z,28.20
2023-02-11T14:40:34.951Z,28.25
2023-02-11T14:43:32.437Z,26.90
2023-02-11T14:46:03.004Z,26.60
2023-02-11T14:48:38.009Z,27.33
2023-02-11T14:51:16.260Z,27.10
2023-02-11T14:53:48.320Z,26.17
2023-02-11T14:56:27.911Z,26.45
2023-02-11T14:58:55.643Z,28.05
2023-02-11T15:01:30.210Z,26.88
2023-02-11T15:06:30.752Z,24.70
2023-02-11T15:09:02.512Z,24.58
2023-02-11T15:11:32.535Z,26.88
2023-02-11T15:14:07.866Z,26.25
2023-02-11T15:16:35.398Z,25.60
2023-02-11T15:19:07.254Z,25.08
2023-02-11T15:21:35.704Z,26.60
2023-02-11T15:24:08.281Z,26.25
2023-02-11T15:26:34.877Z,26.20
2023-02-11T15:29:01.463Z,26.08
2023-02-11T15:31:28.612Z,25.38
2023-02-11T15:33:55.676Z,27.73
2023-02-11T15:36:28.449Z,26.60
2023-02-11T15:39:17.359Z,26.10
2023-02-11T15:41:44.581Z,27.00
2023-02-11T15:44:32.432Z,27.55
2023-02-11T15:46:59.733Z,28.27
2023-02-11T15:49:27.048Z,29.67
2023-02-11T15:51:57.176Z,26.67
2023-02-11T15:54:27.392Z,30.20
2023-02-11T15:57:01.513Z,28.25
2023-02-11T15:59:50.081Z,27.23
2023-02-11T16:02:27.706Z,26.88
2023-02-11T16:04:57.788Z,27.30
2023-02-11T16:07:47.384Z,26.55
2023-02-11T16:10:25.808Z,27.83
2023-02-11T16:13:19.989Z,26.75
2023-02-11T16:15:53.243Z,25.13
2023-02-11T16:18:39.322Z,27.10
2023-02-11T16:21:15.861Z,24.90
2023-02-11T16:23:48.938Z,24.00
2023-02-11T16:26:39.206Z,24.92
2023-02-11T16:29:10.505Z,25.73
2023-02-11T16:31:40.208Z,24.58
2023-02-11T16:34:25.502Z,26.25
2023-02-11T16:36:53.006Z,24.88
2023-02-11T16:39:23.756Z,25.67
2023-02-11T16:41:51.968Z,24.85
2023-02-11T16:44:19.130Z,24.27
2023-02-11T16:46:46.090Z,25.50
2023-02-11T16:49:24.005Z,25.05
2023-02-11T16:51:52.644Z,28.38
2023-02-11T16:54:20.103Z,63.88
2023-02-11T16:56:46.684Z,34.42
2023-02-11T16:59:13.294Z,25.83
2023-02-11T17:01:41.527Z,26.88
2023-02-11T17:04:16.525Z,25.05
2023-02-11T17:06:45.129Z,26.27
2023-02-11T17:09:24.321Z,24.50
2023-02-11T17:11:51.656Z,24.98
2023-02-11T17:14:19.219Z,25.70
2023-02-11T17:16:47.180Z,25.25
2023-02-11T17:19:16.684Z,25.83
2023-02-11T17:21:44.565Z,25.48
2023-02-11T17:24:11.726Z,25.42
2023-02-11T17:26:39.077Z,25.92
2023-02-11T17:29:07.244Z,24.42
2023-02-11T17:31:34.777Z,24.23
2023-02-11T17:34:01.658Z,24.80
2023-02-11T17:36:31.259Z,24.40
2023-02-11T17:38:58.743Z,24.67
2023-02-11T17:41:25.635Z,24.60
2023-02-11T17:43:52.394Z,23.33
2023-02-11T17:46:19.363Z,24.92
2023-02-11T17:48:46.071Z,24.63
2023-02-11T17:51:27.850Z,25.15
2023-02-11T17:53:56.753Z,25.80
2023-02-11T17:56:23.334Z,25.60
2023-02-11T17:58:50.280Z,26.27
2023-02-11T18:01:16.925Z,26.90
2023-02-11T18:03:43.501Z,25.58
2023-02-11T18:06:11.600Z,24.60
2023-02-11T18:08:38.566Z,26.02
2023-02-11T18:11:12.619Z,24.70
2023-02-11T18:13:39.162Z,25.25
2023-02-11T18:16:08.656Z,25.27
2023-02-11T18:18:35.565Z,26.63
2023-02-11T18:21:04.062Z,26.50
2023-02-11T18:23:30.705Z,26.83
2023-02-11T18:25:57.463Z,28.15
2023-02-11T18:28:24.110Z,23.95
2023-02-11T18:30:58.525Z,25.75
2023-02-11T18:33:25.356Z,25.55
2023-02-11T18:35:52.337Z,28.50
2023-02-11T18:38:19.608Z,27.55
2023-02-11T18:40:50.556Z,26.10
2023-02-11T18:43:17.882Z,26.02
2023-02-11T18:45:47.872Z,26.80
2023-02-11T18:48:15.095Z,25.85
2023-02-11T18:50:44.567Z,27.00
2023-02-11T18:53:12.848Z,26.75
2023-02-11T18:55:43.693Z,26.42
2023-02-11T18:58:10.382Z,27.85
2023-02-11T19:00:40.370Z,27.35
2023-02-11T19:03:07.157Z,26.30
2023-02-11T19:05:45.372Z,26.17
2023-02-11T19:08:13.169Z,27.95
2023-02-11T19:10:44.807Z,26.30
2023-02-11T19:13:12.107Z,28.42
2023-02-11T19:15:45.823Z,26.33
2023-02-11T19:18:14.507Z,27.35
2023-02-11T19:20:42.750Z,28.27
2023-02-11T19:23:09.992Z,26.40
2023-02-11T19:25:37.109Z,28.05
2023-02-11T19:28:03.978Z,26.42
2023-02-11T19:30:30.786Z,27.55
2023-02-11T19:32:57.847Z,26.90
2023-02-11T19:35:25.328Z,27.63
2023-02-11T19:37:52.102Z,28.50
2023-02-11T19:40:19.283Z,26.23
2023-02-11T19:42:45.936Z,28.73
2023-02-11T19:45:12.645Z,27.65
2023-02-11T19:47:39.299Z,26.05
2023-02-11T19:50:06.701Z,27.13
2023-02-11T19:52:33.331Z,29.30
2023-02-11T19:55:00.804Z,27.98
2023-02-11T19:57:27.432Z,27.48
2023-02-11T19:59:55.094Z,27.63
2023-02-11T20:02:21.923Z,30.33
2023-02-11T20:04:48.685Z,29.15
2023-02-11T20:07:15.268Z,28.48
2023-02-11T20:09:42.644Z,27.88
2023-02-11T20:12:09.716Z,28.98
2023-02-11T20:14:36.426Z,27.73
2023-02-11T20:17:03.021Z,27.08
2023-02-11T20:19:30.717Z,26.55
2023-02-11T20:21:57.475Z,28.67
2023-02-11T20:24:24.915Z,26.63
2023-02-11T20:26:55.601Z,26.20
2023-02-11T20:29:23.768Z,25.55
2023-02-11T20:31:51.018Z,26.55
2023-02-11T20:34:17.997Z,26.98
2023-02-11T20:36:51.722Z,27.08
2023-02-11T20:39:18.841Z,25.43
2023-02-11T20:41:46.198Z,27.08
2023-02-11T20:44:13.310Z,26.08
2023-02-11T20:46:43.230Z,25.88
2023-02-11T20:49:20.990Z,27.73
2023-02-11T20:51:47.933Z,26.65
2023-02-11T20:54:17.999Z,26.75
2023-02-11T20:56:47.843Z,24.92
2023-02-11T20:59:15.084Z,25.33
2023-02-11T21:01:44.093Z,23.00
2023-02-11T21:04:22.506Z,23.95
2023-02-11T21:06:52.283Z,23.35
2023-02-11T21:09:22.153Z,23.38
2023-02-11T21:11:51.613Z,21.88
2023-02-11T21:14:19.666Z,23.60
2023-02-11T21:16:47.317Z,24.23
2023-02-11T21:19:14.136Z,24.92
2023-02-11T21:21:41.040Z,22.20
2023-02-11T21:24:08.637Z,23.45
2023-02-11T21:26:35.785Z,22.92
2023-02-11T21:29:04.688Z,22.35
2023-02-11T21:31:32.987Z,22.83
2023-02-11T21:33:59.710Z,23.20
2023-02-11T21:36:28.720Z,24.20
2023-02-11T21:38:55.589Z,22.67
2023-02-11T21:41:22.901Z,24.05
2023-02-11T21:43:49.946Z,24.02
2023-02-11T21:46:18.077Z,22.85
2023-02-11T21:48:45.117Z,23.38
2023-02-11T21:51:15.123Z,24.33
2023-02-11T21:53:41.807Z,23.63
2023-02-11T21:56:17.105Z,23.88
2023-02-11T21:58:44.842Z,25.38
2023-02-11T22:01:17.729Z,23.52
2023-02-11T22:03:45.575Z,24.38
2023-02-11T22:06:21.098Z,25.52
2023-02-11T22:08:51.171Z,21.77
2023-02-11T22:11:18.219Z,23.70
2023-02-11T22:13:45.437Z,23.10
2023-02-11T22:16:14.977Z,24.27
2023-02-11T22:18:42.786Z,24.80
2023-02-11T22:21:12.233Z,23.38
2023-02-11T22:23:40.046Z,23.85
2023-02-11T22:26:09.867Z,23.05
2023-02-11T22:28:38.886Z,22.98
2023-02-11T22:31:05.627Z,23.13
2023-02-11T22:33:32.610Z,24.85
2023-02-11T22:36:01.138Z,24.27
2023-02-11T22:38:31.644Z,26.35
2023-02-11T22:40:59.857Z,25.25
2023-02-11T22:43:27.814Z,24.55
2023-02-11T22:45:56.445Z,25.25
2023-02-11T22:48:23.359Z,24.10
2023-02-11T22:50:49.982Z,24.52
2023-02-11T22:53:16.580Z,25.60
2023-02-11T22:55:43.193Z,25.08
2023-02-11T22:58:09.993Z,24.15
2023-02-11T23:00:40.310Z,24.83
2023-02-11T23:03:08.601Z,26.77
2023-02-11T23:05:39.839Z,25.38
2023-02-11T23:08:11.212Z,23.60
2023-02-11T23:10:39.715Z,22.70
2023-02-11T23:13:08.317Z,23.25
2023-02-11T23:15:39.788Z,24.58
2023-02-11T23:18:06.880Z,23.50
2023-02-11T23:20:39.445Z,25.52
2023-02-11T23:23:06.015Z,23.60
2023-02-11T23:25:33.648Z,23.50
2023-02-11T23:28:01.053Z,23.42
2023-02-11T23:30:28.626Z,24.20
2023-02-11T23:32:55.371Z,22.60
2023-02-11T23:35:23.196Z,24.33
2023-02-11T23:37:50.786Z,24.15
2023-02-11T23:40:19.056Z,23.85
2023-02-11T23:42:46.016Z,23.00
2023-02-11T23:45:12.610Z,23.98
2023-02-11T23:47:39.727Z,23.55
2023-02-11T23:50:10.550Z,23.58
2023-02-11T23:52:37.293Z,22.10
2023-02-11T23:55:04.266Z,21.98
2023-02-11T23:57:34.621Z,22.42
